createdAt,value
2023-03-02T00:01:24.675Z,99488.66
2023-03-02T00:03:52.382Z,99480.88
2023-03-02T00:06:20.277Z,99486.94
2023-03-02T00:08:48.214Z,99474.81
2023-03-02T00:11:16.425Z,99481.75
2023-03-02T00:13:45.415Z,99490.38
2023-03-02T00:16:12.994Z,99481.75
2023-03-02T00:18:40.593Z,99480.00
2023-03-02T00:21:10.456Z,99478.28
2023-03-02T00:23:38.473Z,99473.97
2023-03-02T00:26:06.388Z,99479.16
2023-03-02T00:28:34.239Z,99479.16
2023-03-02T00:31:05.168Z,99477.41
2023-03-02T00:33:32.938Z,99475.69
2023-03-02T00:36:00.516Z,99469.63
2023-03-02T00:38:28.630Z,99459.25
2023-03-02T00:40:56.652Z,99466.19
2023-03-02T00:43:29.435Z,99464.44
2023-03-02T00:45:56.968Z,99467.91
2023-03-02T00:48:25.928Z,99470.50
2023-03-02T00:50:53.492Z,99461.84
2023-03-02T00:53:21.072Z,99466.19
2023-03-02T00:55:54.391Z,99455.78
2023-03-02T00:58:22.194Z,99454.94
2023-03-02T01:00:50.080Z,99454.94
2023-03-02T01:03:17.692Z,99457.53
2023-03-02T01:05:46.644Z,99455.78
2023-03-02T01:08:14.360Z,99461.00
2023-03-02T01:10:42.173Z,99443.69
2023-03-02T01:13:09.715Z,99446.28
2023-03-02T01:15:37.261Z,99450.63
2023-03-02T01:18:05.119Z,99443.69
2023-03-02T01:20:32.693Z,99435.91
2023-03-02T01:23:01.601Z,99431.59
2023-03-02T01:25:29.274Z,99427.25
2023-03-02T01:27:57.008Z,99431.59
2023-03-02T01:30:24.582Z,99429.00
2023-03-02T01:32:52.155Z,99432.44
2023-03-02T01:35:19.922Z,99430.72
2023-03-02T01:37:47.551Z,99423.81
2023-03-02T01:40:18.745Z,99429.00
2023-03-02T01:42:55.102Z,99424.66
2023-03-02T01:45:47.432Z,99432.44
2023-03-02T01:48:17.279Z,99427.25
2023-03-02T01:50:45.122Z,99422.94
2023-03-02T01:53:13.073Z,99422.94
2023-03-02T01:55:44.145Z,99426.41
2023-03-02T01:58:13.416Z,99422.94
2023-03-02T02:00:41.284Z,99416.03
2023-03-02T02:03:12.083Z,99416.88
2023-03-02T02:05:41.403Z,99417.75
2023-03-02T02:08:09.469Z,99411.69
2023-03-02T02:10:37.289Z,99414.28
2023-03-02T02:13:07.196Z,99412.56
2023-03-02T02:15:34.827Z,99409.09
2023-03-02T02:18:02.425Z,99408.22
2023-03-02T02:20:35.048Z,99408.25
2023-03-02T02:23:11.303Z,99405.63
2023-03-02T02:25:46.438Z,99403.06
2023-03-02T02:28:19.261Z,99399.59
2023-03-02T02:30:47.454Z,99395.25
2023-03-02T02:33:16.721Z,99392.66
2023-03-02T02:35:47.067Z,99391.78
2023-03-02T02:38:17.289Z,99396.97
2023-03-02T02:40:47.511Z,99386.59
2023-03-02T02:43:18.371Z,99389.19
2023-03-02T02:45:46.587Z,99384.03
2023-03-02T02:48:17.334Z,99388.34
2023-03-02T02:50:45.643Z,99385.75
2023-03-02T02:53:15.278Z,99382.25
2023-03-02T02:55:43.286Z,99382.25
2023-03-02T02:58:26.186Z,99385.72
2023-03-02T03:00:54.703Z,99383.97
2023-03-02T03:03:30.750Z,99381.41
2023-03-02T03:05:59.686Z,99372.75
2023-03-02T03:08:55.757Z,99374.47
2023-03-02T03:11:26.393Z,99377.09
2023-03-02T03:13:59.897Z,99375.34
2023-03-02T03:16:30.030Z,99376.22
2023-03-02T03:18:58.734Z,99368.44
2023-03-02T03:21:26.254Z,99375.38
2023-03-02T03:23:53.810Z,99369.28
2023-03-02T03:26:21.581Z,99367.53
2023-03-02T03:28:49.129Z,99362.38
2023-03-02T03:31:18.213Z,99364.13
2023-03-02T03:33:45.851Z,99366.72
2023-03-02T03:36:13.547Z,99369.31
2023-03-02T03:38:41.159Z,99366.72
2023-03-02T03:41:08.691Z,99370.16
2023-03-02T03:43:36.301Z,99364.13
2023-03-02T03:46:03.968Z,99361.53
2023-03-02T03:48:32.902Z,99367.59
2023-03-02T03:51:00.566Z,99360.66
2023-03-02T03:53:28.476Z,99363.28
2023-03-02T03:55:58.247Z,99363.28
2023-03-02T03:58:26.103Z,99358.06
2023-03-02T04:00:54.032Z,99359.81
2023-03-02T04:03:22.027Z,99361.53
2023-03-02T04:05:50.922Z,99357.22
2023-03-02T04:08:18.583Z,99355.50
2023-03-02T04:10:46.520Z,99360.69
2023-03-02T04:13:14.177Z,99358.09
2023-03-02T04:15:43.122Z,99357.22
2023-03-02T04:18:11.508Z,99360.69
2023-03-02T04:20:39.128Z,99367.59
2023-03-02T04:23:08.067Z,99366.75
2023-03-02T04:25:35.590Z,99373.66
2023-03-02T04:28:03.240Z,99371.94
2023-03-02T04:30:33.040Z,99372.78
2023-03-02T04:33:00.648Z,99376.25
2023-03-02T04:35:28.277Z,99366.75
2023-03-02T04:37:55.975Z,99367.59
2023-03-02T04:40:25.097Z,99370.19
2023-03-02T04:42:52.740Z,99368.47
2023-03-02T04:45:20.480Z,99370.19
2023-03-02T04:47:48.069Z,99367.63
2023-03-02T04:50:16.320Z,99379.72
2023-03-02T04:52:43.835Z,99375.38
2023-03-02T04:55:17.307Z,99372.78
2023-03-02T04:57:46.185Z,99372.78
2023-03-02T05:00:14.493Z,99382.31
2023-03-02T05:02:42.340Z,99379.72
2023-03-02T05:05:14.700Z,99376.25
2023-03-02T05:07:42.262Z,99377.97
2023-03-02T05:10:10.966Z,99373.66
2023-03-02T05:12:54.501Z,99377.97
2023-03-02T05:15:24.659Z,99369.34
2023-03-02T05:17:52.331Z,99378.84
2023-03-02T05:20:20.347Z,99376.25
2023-03-02T05:22:48.214Z,99372.78
2023-03-02T05:25:15.821Z,99365.88
2023-03-02T05:27:43.354Z,99358.97
2023-03-02T05:30:12.396Z,99375.38
2023-03-02T05:32:41.482Z,99373.66
2023-03-02T05:35:09.887Z,99377.09
2023-03-02T05:37:39.736Z,99369.34
2023-03-02T05:40:09.478Z,99369.31
2023-03-02T05:42:37.052Z,99372.78
2023-03-02T05:45:05.329Z,99377.97
2023-03-02T05:47:32.901Z,99371.06
2023-03-02T05:50:02.177Z,99375.38
2023-03-02T05:52:29.768Z,99381.44
2023-03-02T05:54:59.398Z,99377.13
2023-03-02T05:57:27.627Z,99367.59
2023-03-02T05:59:55.156Z,99385.75
2023-03-02T06:02:22.791Z,99382.31
2023-03-02T06:04:50.421Z,99377.97
2023-03-02T06:07:19.390Z,99384.91
2023-03-02T06:09:46.984Z,99375.38
2023-03-02T06:12:14.554Z,99387.50
2023-03-02T06:14:42.301Z,99393.53
2023-03-02T06:17:09.842Z,99395.28
2023-03-02T06:19:37.426Z,99396.13
2023-03-02T06:22:05.045Z,99397.00
2023-03-02T06:24:34.125Z,99397.88
2023-03-02T06:27:01.719Z,99402.19
2023-03-02T06:29:29.376Z,99397.84
2023-03-02T06:31:57.028Z,99400.44
2023-03-02T06:34:24.636Z,99399.56
2023-03-02T06:36:52.202Z,99409.94
2023-03-02T06:39:19.758Z,99409.94
2023-03-02T06:41:49.427Z,99401.28
2023-03-02T06:44:18.764Z,99400.41
2023-03-02T06:46:46.608Z,99403.88
2023-03-02T06:49:14.323Z,99402.13
2023-03-02T06:51:41.882Z,99403.00
2023-03-02T06:54:09.466Z,99408.19
2023-03-02T06:56:37.828Z,99409.03
2023-03-02T06:59:07.473Z,99403.81
2023-03-02T07:01:36.279Z,99402.97
2023-03-02T07:04:04.317Z,99410.69
2023-03-02T07:06:31.904Z,99396.81
2023-03-02T07:08:59.470Z,99402.84
2023-03-02T07:11:27.001Z,99401.09
2023-03-02T07:13:54.639Z,99401.94
2023-03-02T07:16:23.636Z,99407.06
2023-03-02T07:18:51.215Z,99403.50
2023-03-02T07:21:18.766Z,99407.00
2023-03-02T07:23:46.362Z,99406.13
2023-03-02T07:26:13.908Z,99407.84
2023-03-02T07:28:43.406Z,99405.09
2023-03-02T07:31:11.589Z,99416.38
2023-03-02T07:33:40.956Z,99406.81
2023-03-02T07:36:09.546Z,99405.09
2023-03-02T07:38:38.484Z,99408.41
2023-03-02T07:41:08.136Z,99405.84
2023-03-02T07:43:36.595Z,99407.47
2023-03-02T07:46:04.965Z,99403.00
2023-03-02T07:48:32.654Z,99407.38
2023-03-02T07:51:02.917Z,99395.22
2023-03-02T07:53:31.947Z,99411.66
2023-03-02T07:56:01.269Z,99414.13
2023-03-02T07:58:29.069Z,99412.41
2023-03-02T08:00:56.626Z,99407.97
2023-03-02T08:03:24.238Z,99407.97
2023-03-02T08:05:51.810Z,99408.53
2023-03-02T08:08:20.738Z,99408.41
2023-03-02T08:10:48.350Z,99416.31
2023-03-02T08:13:15.999Z,99403.97
2023-03-02T08:15:43.633Z,99410.84
2023-03-02T08:18:11.320Z,99402.88
2023-03-02T08:20:39.316Z,99407.75
2023-03-02T08:23:06.954Z,99414.81
2023-03-02T08:25:35.923Z,99409.41
2023-03-02T08:28:03.456Z,99413.78
2023-03-02T08:30:31.134Z,99417.97
2023-03-02T08:32:58.996Z,99408.38
2023-03-02T08:35:27.681Z,99395.25
2023-03-02T08:37:55.325Z,99410.91
2023-03-02T08:40:23.100Z,99398.50
2023-03-02T08:42:56.910Z,99392.97
2023-03-02T08:45:25.253Z,99393.34
2023-03-02T08:47:54.238Z,99399.56
2023-03-02T08:50:21.834Z,99391.38
2023-03-02T08:52:49.508Z,99381.31
2023-03-02T08:55:18.460Z,99388.50
2023-03-02T08:57:46.460Z,99385.81
2023-03-02T09:00:16.941Z,99390.72
2023-03-02T09:02:44.631Z,99387.06
2023-03-02T09:05:12.262Z,99387.97
2023-03-02T09:07:39.892Z,99394.78
2023-03-02T09:10:07.877Z,99393.03
2023-03-02T09:12:35.574Z,99387.09
2023-03-02T09:15:03.198Z,99389.25
2023-03-02T09:17:32.247Z,99386.44
2023-03-02T09:20:00.420Z,99379.88
2023-03-02T09:22:28.668Z,99380.22
2023-03-02T09:24:56.284Z,99382.97
2023-03-02T09:27:23.894Z,99378.13
2023-03-02T09:29:51.476Z,99374.47
2023-03-02T09:32:19.167Z,99376.72
2023-03-02T09:34:48.351Z,99377.50
2023-03-02T09:37:16.042Z,99379.41
2023-03-02T09:39:43.740Z,99372.06
2023-03-02T09:42:19.988Z,99369.38
2023-03-02T09:45:03.977Z,99369.97
2023-03-02T09:47:37.608Z,99368.88
2023-03-02T09:50:18.136Z,99380.97
2023-03-02T09:52:52.362Z,99373.88
2023-03-02T09:55:23.624Z,99372.94
2023-03-02T09:57:51.385Z,99370.16
2023-03-02T10:00:25.833Z,99380.66
2023-03-02T10:02:58.754Z,99379.06
2023-03-02T10:05:36.814Z,99384.66
2023-03-02T10:08:04.461Z,99382.22
2023-03-02T10:10:37.744Z,99380.28
2023-03-02T10:13:19.899Z,99388.06
2023-03-02T10:15:56.574Z,99391.72
2023-03-02T10:18:26.797Z,99386.38
2023-03-02T10:20:59.735Z,99383.94
2023-03-02T10:23:35.065Z,99386.56
2023-03-02T10:26:10.986Z,99367.25
2023-03-02T10:28:43.243Z,99368.66
2023-03-02T10:31:13.281Z,99375.81
2023-03-02T10:33:41.916Z,99384.41
2023-03-02T10:36:20.997Z,99381.69
2023-03-02T10:38:48.694Z,99364.84
2023-03-02T10:41:19.378Z,99366.19
2023-03-02T10:43:49.495Z,99365.31
2023-03-02T10:46:17.119Z,99363.22
2023-03-02T10:48:49.879Z,99356.16
2023-03-02T10:51:29.661Z,99349.25
2023-03-02T10:54:05.595Z,99355.16
2023-03-02T10:56:33.934Z,99355.75
2023-03-02T10:59:03.963Z,99354.59
2023-03-02T11:01:32.551Z,99357.13
2023-03-02T11:04:01.841Z,99349.88
2023-03-02T11:06:31.461Z,99346.25
2023-03-02T11:09:00.836Z,99344.31
2023-03-02T11:11:28.490Z,99342.72
2023-03-02T11:13:57.263Z,99332.97
2023-03-02T11:16:28.446Z,99339.28
2023-03-02T11:18:59.694Z,99332.03
2023-03-02T11:21:35.543Z,99327.63
2023-03-02T11:24:10.408Z,99335.22
2023-03-02T11:26:40.027Z,99329.38
2023-03-02T11:29:14.690Z,99329.47
2023-03-02T11:31:44.953Z,99323.25
2023-03-02T11:34:22.453Z,99330.13
2023-03-02T11:36:59.048Z,99327.50
2023-03-02T11:39:32.691Z,99322.31
2023-03-02T11:42:00.416Z,99315.53
2023-03-02T11:44:29.669Z,99322.25
2023-03-02T11:47:01.123Z,99309.75
2023-03-02T11:49:37.972Z,99310.78
2023-03-02T11:52:08.202Z,99307.50
2023-03-02T11:54:42.231Z,99293.00
2023-03-02T11:57:20.440Z,99299.31
2023-03-02T11:59:48.500Z,99283.28
2023-03-02T12:02:16.496Z,99286.22
2023-03-02T12:04:44.459Z,99289.50
2023-03-02T12:07:23.797Z,99285.16
2023-03-02T12:09:59.874Z,99290.16
2023-03-02T12:12:48.397Z,99287.47
2023-03-02T12:15:29.275Z,99282.09
2023-03-02T12:17:56.905Z,99284.25
2023-03-02T12:20:27.444Z,99280.66
2023-03-02T12:23:07.904Z,99284.00
2023-03-02T12:25:43.780Z,99281.56
2023-03-02T12:28:28.148Z,99269.72
2023-03-02T12:31:04.591Z,99273.56
2023-03-02T12:33:32.161Z,99254.47
2023-03-02T12:36:13.109Z,99263.50
2023-03-02T12:38:43.994Z,99246.50
2023-03-02T12:41:35.646Z,99248.72
2023-03-02T12:44:13.807Z,99245.19
2023-03-02T12:46:46.283Z,99241.59
2023-03-02T12:49:33.435Z,99243.22
2023-03-02T12:52:02.608Z,99228.81
2023-03-02T12:54:37.818Z,99235.19
2023-03-02T12:57:09.084Z,99229.22
2023-03-02T12:59:39.712Z,99231.59
2023-03-02T13:02:16.770Z,99234.91
2023-03-02T13:04:46.322Z,99217.56
2023-03-02T13:07:19.889Z,99229.44
2023-03-02T13:09:56.599Z,99218.38
2023-03-02T13:12:28.009Z,99218.72
2023-03-02T13:15:01.082Z,99213.84
2023-03-02T13:17:31.157Z,99217.63
2023-03-02T13:20:04.145Z,99222.03
2023-03-02T13:22:32.719Z,99210.81
2023-03-02T13:25:05.153Z,99219.03
2023-03-02T13:27:34.164Z,99213.44
2023-03-02T13:30:19.075Z,99202.75
2023-03-02T13:32:47.357Z,99209.22
2023-03-02T13:35:21.001Z,99206.69
2023-03-02T13:37:56.158Z,99195.34
2023-03-02T13:40:40.634Z,99200.59
2023-03-02T13:43:35.671Z,99203.53
2023-03-02T13:46:05.233Z,99188.38
2023-03-02T13:48:34.345Z,99197.25
2023-03-02T13:51:05.034Z,99201.41
2023-03-02T13:53:38.201Z,99186.06
2023-03-02T13:56:08.401Z,99200.03
2023-03-02T13:58:39.657Z,99198.66
2023-03-02T14:01:08.984Z,99198.13
2023-03-02T14:03:37.609Z,99195.38
2023-03-02T14:06:07.137Z,99190.63
2023-03-02T14:08:35.363Z,99190.34
2023-03-02T14:11:04.771Z,99190.09
2023-03-02T14:13:38.169Z,99184.72
2023-03-02T14:16:07.572Z,99179.66
2023-03-02T14:18:39.973Z,99182.00
2023-03-02T14:21:08.056Z,99179.06
2023-03-02T14:23:36.302Z,99181.16
2023-03-02T14:26:11.308Z,99178.03
2023-03-02T14:28:40.639Z,99178.31
2023-03-02T14:31:10.150Z,99171.81
2023-03-02T14:33:38.675Z,99177.88
2023-03-02T14:36:06.917Z,99168.84
2023-03-02T14:38:35.392Z,99169.25
2023-03-02T14:41:03.104Z,99173.47
2023-03-02T14:43:30.819Z,99167.06
2023-03-02T14:45:59.760Z,99171.16
2023-03-02T14:48:27.342Z,99161.19
2023-03-02T14:50:54.888Z,99163.53
2023-03-02T14:53:27.855Z,99170.38
2023-03-02T14:55:55.416Z,99167.03
2023-03-02T14:58:29.188Z,99169.13
2023-03-02T15:00:56.755Z,99165.38
2023-03-02T15:03:26.724Z,99165.75
2023-03-02T15:06:01.391Z,99164.91
2023-03-02T15:08:29.629Z,99152.72
2023-03-02T15:10:57.316Z,99162.06
2023-03-02T15:13:24.904Z,99164.66
2023-03-02T15:15:52.741Z,99161.69
2023-03-02T15:18:20.471Z,99171.16
2023-03-02T15:20:49.413Z,99170.00
2023-03-02T15:23:17.007Z,99165.19
2023-03-02T15:25:44.572Z,99173.34
2023-03-02T15:28:12.120Z,99171.06
2023-03-02T15:30:41.559Z,99160.72
2023-03-02T15:33:09.163Z,99171.25
2023-03-02T15:35:39.505Z,99172.63
2023-03-02T15:38:08.473Z,99169.09
2023-03-02T15:40:36.691Z,99173.00
2023-03-02T15:43:04.602Z,99162.59
2023-03-02T15:45:32.125Z,99166.94
2023-03-02T15:47:59.679Z,99168.78
2023-03-02T15:50:27.277Z,99168.13
2023-03-02T15:52:57.309Z,99170.56
2023-03-02T15:55:27.038Z,99172.94
2023-03-02T15:57:57.927Z,99180.09
2023-03-02T16:00:25.986Z,99177.66
2023-03-02T16:02:54.639Z,99173.81
2023-03-02T16:05:22.353Z,99186.88
2023-03-02T16:07:49.932Z,99191.03
2023-03-02T16:10:19.580Z,99188.84
2023-03-02T16:12:48.502Z,99186.56
2023-03-02T16:15:16.121Z,99189.28
2023-03-02T16:17:43.903Z,99185.78
2023-03-02T16:20:12.875Z,99187.19
2023-03-02T16:22:40.546Z,99184.00
2023-03-02T16:25:08.806Z,99188.91
2023-03-02T16:27:36.404Z,99190.56
2023-03-02T16:30:06.132Z,99195.81
2023-03-02T16:32:34.138Z,99203.41
2023-03-02T16:35:01.684Z,99196.53
2023-03-02T16:37:29.395Z,99204.75
2023-03-02T16:39:57.058Z,99205.59
2023-03-02T16:42:24.613Z,99210.41
2023-03-02T16:44:52.175Z,99219.97
2023-03-02T16:47:21.059Z,99215.56
2023-03-02T16:49:48.626Z,99219.13
2023-03-02T16:52:18.550Z,99221.56
2023-03-02T16:54:46.164Z,99222.47
2023-03-02T16:57:13.694Z,99220.19
2023-03-02T16:59:41.347Z,99222.38
2023-03-02T17:02:10.110Z,99218.91
2023-03-02T17:04:39.103Z,99221.38
2023-03-02T17:07:06.694Z,99224.72
2023-03-02T17:09:35.963Z,99226.69
2023-03-02T17:12:03.891Z,99232.00
2023-03-02T17:14:31.469Z,99226.31
2023-03-02T17:16:59.021Z,99236.41
2023-03-02T17:19:29.365Z,99238.78
2023-03-02T17:21:59.206Z,99238.94
2023-03-02T17:24:26.977Z,99244.31
2023-03-02T17:26:54.559Z,99239.50
2023-03-02T17:29:22.649Z,99242.22
2023-03-02T17:31:50.313Z,99254.59
2023-03-02T17:34:17.939Z,99254.06
2023-03-02T17:36:45.529Z,99250.78
2023-03-02T17:39:14.426Z,99255.47
2023-03-02T17:41:42.017Z,99260.91
2023-03-02T17:44:09.561Z,99261.13
2023-03-02T17:46:37.187Z,99260.56
2023-03-02T17:49:04.799Z,99265.22
2023-03-02T17:51:32.376Z,99265.22
2023-03-02T17:53:59.999Z,99269.22
2023-03-02T17:56:29.975Z,99274.06
2023-03-02T17:58:59.326Z,99271.22
2023-03-02T18:01:27.419Z,99275.59
2023-03-02T18:03:55.214Z,99282.84
2023-03-02T18:06:22.838Z,99292.03
2023-03-02T18:08:51.810Z,99292.25
2023-03-02T18:11:21.957Z,99288.03
2023-03-02T18:13:51.041Z,99292.50
2023-03-02T18:16:18.603Z,99295.19
2023-03-02T18:18:46.186Z,99299.78
2023-03-02T18:21:13.851Z,99292.91
2023-03-02T18:23:41.955Z,99301.94
2023-03-02T18:26:09.609Z,99302.63
2023-03-02T18:28:37.176Z,99305.38
2023-03-02T18:31:06.736Z,99310.53
2023-03-02T18:33:34.920Z,99316.66
2023-03-02T18:36:05.317Z,99302.13
2023-03-02T18:38:33.097Z,99310.78
2023-03-02T18:41:02.998Z,99302.00
2023-03-02T18:43:32.632Z,99303.16
2023-03-02T18:46:00.393Z,99312.78
2023-03-02T18:48:29.725Z,99320.78
2023-03-02T18:50:57.488Z,99322.19
2023-03-02T18:53:25.421Z,99316.06
2023-03-02T18:55:55.531Z,99319.56
2023-03-02T18:58:25.092Z,99320.66
2023-03-02T19:00:54.406Z,99317.31
2023-03-02T19:03:22.324Z,99321.22
2023-03-02T19:05:53.070Z,99330.75
2023-03-02T19:08:24.263Z,99319.56
2023-03-02T19:10:52.745Z,99332.69
2023-03-02T19:13:20.896Z,99290.25
2023-03-02T19:15:48.919Z,99327.34
2023-03-02T19:18:17.477Z,99335.31
2023-03-02T19:20:46.324Z,99334.63
2023-03-02T19:23:15.826Z,99325.28
2023-03-02T19:25:44.117Z,99334.13
2023-03-02T19:28:12.089Z,99343.84
2023-03-02T19:30:40.045Z,99344.25
2023-03-02T19:33:09.261Z,99338.47
2023-03-02T19:35:38.371Z,99337.34
2023-03-02T19:38:06.146Z,99341.97
2023-03-02T19:40:35.560Z,99321.31
2023-03-02T19:43:03.281Z,99353.31
2023-03-02T19:45:35.046Z,99356.47
2023-03-02T19:48:03.671Z,99355.97
2023-03-02T19:50:31.501Z,99355.25
2023-03-02T19:52:59.963Z,99350.00
2023-03-02T19:55:28.222Z,99346.66
2023-03-02T19:58:00.070Z,99351.16
2023-03-02T20:00:29.074Z,99353.72
2023-03-02T20:02:57.532Z,99352.13
2023-03-02T20:05:25.965Z,99353.94
2023-03-02T20:07:53.520Z,99357.19
2023-03-02T20:10:28.485Z,99345.03
2023-03-02T20:12:59.244Z,99353.53
2023-03-02T20:15:27.450Z,99350.44
2023-03-02T20:17:55.345Z,99363.38
2023-03-02T20:20:24.703Z,99367.03
2023-03-02T20:22:52.937Z,99349.97
2023-03-02T20:25:23.751Z,99368.03
2023-03-02T20:27:51.962Z,99370.88
2023-03-02T20:30:27.856Z,99365.91
2023-03-02T20:32:56.782Z,99360.59
2023-03-02T20:35:25.941Z,99360.44
2023-03-02T20:37:55.635Z,99367.75
2023-03-02T20:40:23.690Z,99371.28
2023-03-02T20:42:51.303Z,99369.75
2023-03-02T20:45:18.989Z,99374.09
2023-03-02T20:47:48.938Z,99370.75
2023-03-02T20:50:19.748Z,99369.63
2023-03-02T20:52:47.319Z,99368.91
2023-03-02T20:55:15.175Z,99360.00
2023-03-02T20:57:42.867Z,99378.31
2023-03-02T21:00:16.285Z,99373.13
2023-03-02T21:02:47.358Z,99379.28
2023-03-02T21:05:17.982Z,99372.09
2023-03-02T21:07:46.246Z,99378.38
2023-03-02T21:10:17.007Z,99377.81
2023-03-02T21:12:45.593Z,99373.41
2023-03-02T21:15:14.164Z,99382.22
2023-03-02T21:17:41.764Z,99376.31
2023-03-02T21:20:11.345Z,99382.38
2023-03-02T21:22:40.240Z,99385.06
2023-03-02T21:25:09.209Z,99383.34
2023-03-02T21:27:37.124Z,99386.06
2023-03-02T21:30:06.091Z,99376.66
2023-03-02T21:32:33.958Z,99385.88
2023-03-02T21:35:02.683Z,99386.81
2023-03-02T21:37:30.358Z,99378.97
2023-03-02T21:40:00.260Z,99378.19
2023-03-02T21:42:27.879Z,99371.16
2023-03-02T21:44:55.535Z,99382.56
2023-03-02T21:47:23.137Z,99386.16
2023-03-02T21:49:50.755Z,99369.81
2023-03-02T21:52:18.427Z,99389.09
2023-03-02T21:54:46.019Z,99380.38
2023-03-02T21:57:14.954Z,99383.94
2023-03-02T21:59:42.572Z,99370.84
2023-03-02T22:02:10.709Z,99374.94
2023-03-02T22:04:38.287Z,99373.91
2023-03-02T22:07:05.974Z,99378.63
2023-03-02T22:09:33.563Z,99389.09
2023-03-02T22:12:01.442Z,99391.78
2023-03-02T22:14:30.444Z,99391.69
2023-03-02T22:16:59.202Z,99393.53
2023-03-02T22:19:27.919Z,99384.69
2023-03-02T22:21:56.683Z,99391.75
2023-03-02T22:24:26.134Z,99386.47
2023-03-02T22:26:59.124Z,99390.00
2023-03-02T22:29:28.013Z,99394.56
2023-03-02T22:31:58.522Z,99391.00
2023-03-02T22:34:28.158Z,99392.19
2023-03-02T22:36:59.760Z,99382.56
2023-03-02T22:39:30.170Z,99386.13
2023-03-02T22:42:06.122Z,99384.47
2023-03-02T22:44:34.176Z,99382.91
2023-03-02T22:47:03.372Z,99385.34
2023-03-02T22:49:30.919Z,99387.22
2023-03-02T22:52:02.471Z,99382.19
2023-03-02T22:54:33.118Z,99390.94
2023-03-02T22:57:02.803Z,99392.94
2023-03-02T22:59:37.243Z,99385.66
2023-03-02T23:02:14.930Z,99382.94
2023-03-02T23:04:49.466Z,99390.84
2023-03-02T23:07:19.108Z,99384.75
2023-03-02T23:09:47.041Z,99392.75
2023-03-02T23:12:17.398Z,99389.41
2023-03-02T23:14:49.022Z,99389.41
2023-03-02T23:17:21.017Z,99394.78
2023-03-02T23:19:48.769Z,99390.50
2023-03-02T23:22:16.802Z,99373.84
2023-03-02T23:24:44.530Z,99381.56
2023-03-02T23:27:12.499Z,99391.09
2023-03-02T23:29:40.319Z,99380.78
2023-03-02T23:32:08.196Z,99387.78
2023-03-02T23:34:37.204Z,99391.31
2023-03-02T23:37:04.894Z,99385.22
2023-03-02T23:39:32.463Z,99392.94
2023-03-02T23:42:00.164Z,99392.09
2023-03-02T23:44:27.813Z,99391.28
2023-03-02T23:46:55.377Z,99393.94
2023-03-02T23:49:22.924Z,99397.41
2023-03-02T23:51:51.922Z,99389.75
2023-03-02T23:54:21.300Z,99390.97
2023-03-02T23:56:48.865Z,99398.06
2023-03-02T23:59:16.396Z,99402.41
